SCC: Birmingham: GS final practice times

Pos Num Class Team Time Gap To 1st Speed --- --- ----- ------------------------------ ---------- ------- ------- ------- 1. 42 GS TRG 1:37.990 84.498 2. 49...

Pos Num Class Team                                 Time     Gap  To 1st   Speed
--- --- ----- ------------------------------ ---------- ------- ------- -------
 1.  42 GS    TRG                              1:37.990                  84.498
 2.  49 GS    Marcus Motorsports               1:38.194   0.204   0.204  84.323
 3.  99 GS    Automatic Racing                 1:38.210   0.016   0.220  84.309
 4.  87 GS    Marcus Motorsports               1:38.241   0.031   0.251  84.283
 5.  55 GS    Hyper Sport                      1:38.251   0.010   0.261  84.274
 6.  25 GS    Fiorano/C-MAX Racing             1:38.279   0.028   0.289  84.250
 7.  59 GS    Rehagen Racing                   1:38.498   0.219   0.508  84.063
 8.  40 GS    TRG                              1:38.657   0.159   0.667  83.927
 9.   9 GS    Spirit of Daytona Racing         1:39.005   0.348   1.015  83.632
10.  97 GS    Turner Motorsport                1:39.118   0.113   1.128  83.537
11.  79 GS    Kinetic Motorsports              1:39.195   0.077   1.205  83.472
12.  37 GS    JBS Racing                       1:39.210   0.015   1.220  83.459
13.  52 GS    Rehagen Racing                   1:39.214   0.004   1.224  83.456
14.   5 GS    Blackforest Motorsports          1:39.307   0.093   1.317  83.378
15. 154 GS    Jim Click Racing                 1:39.450   0.143   1.460  83.258
16.  17 GS    Team Centurion                   1:39.508   0.058   1.518  83.209
17.  88 GS    Ranger Sports Racing             1:39.583   0.075   1.593  83.147
18.  09 GS    Automatic Racing                 1:39.620   0.037   1.630  83.116
19.  38 GS    BGB Motorsports                  1:39.723   0.103   1.733  83.030
20. 150 GS    Jim Click Racing                 1:39.746   0.023   1.756  83.011
21.  83 GS    BGB Motorsports                  1:39.759   0.013   1.769  83.000
22.  41 GS    TRG                              1:39.891   0.132   1.901  82.890
23.  39 GS    TRG                              1:40.012   0.121   2.022  82.790
24.   4 GS    Blackforest Motorsports          1:40.027   0.015   2.037  82.778
25.  28 GS    Fall-Line Motorsports            1:40.110   0.083   2.120  82.709
26.  91 GS    Automatic Racing                 1:40.522   0.412   2.532  82.370
27.  90 GS    Automatic Racing                 1:40.606   0.084   2.616  82.301
28.  07 GS    Cardiosport Racing               1:40.621   0.015   2.631  82.289
29.  46 GS    Fall-Line Motorsports            1:40.644   0.023   2.654  82.270
30.  96 GS    Turner Motorsport                1:40.694   0.050   2.704  82.229
31. 156 GS    Hyper Sport                      1:41.314   0.620   3.324  81.726
32.  54 GS    Hyper Sport                      1:41.422   0.108   3.432  81.639
33.  11 GS    Southwest Racers Group           1:41.549   0.127   3.559  81.537
34. 137 GS    JBS Motorsports                  1:41.991   0.442   4.001  81.184
35.   3 GS    Blackforest Motorsports          1:42.077   0.086   4.087  81.115
36.   2 GS    Blackforest Motorsports          1:42.362   0.285   4.372  80.889
37.  89 GS    Ranger Sports Racing             1:45.934   3.572   7.944  78.162
38.  10 GS    Spirit of Daytona Racing         1:46.160   0.226   8.170  77.995
39.  26 GS    Fiorano/C-MAX Racing             1:58.829  12.669  20.839  69.680

Be part of something big

Write a comment
Show comments
About this article
Series Grand-Am
Drivers Jim Click
Teams Kinetic Motorsports , Rehagen Racing , Turner Motorsport , Automatic Racing , Fall-Line Motorsports